Time;durP1;ratioP1;P1;durP2;ratioP2;P2;SDS_P1;SDS_P2;PMS_P1;PMS_P2;Temp;Humidity;BMP_temperature;BMP_pressure;BME280_temperature;BME280_humidity;BME280_pressure;Samples;Min_cycle;Max_cycle;Signal;HPM_P1;HPM_P2
2021/10/07 00:00:37;;;;;;;24.50;16.20;;;12.80;99.90;;;;;;5054365;28;20017;-85
2021/10/07 00:03:02;;;;;;;23.33;16.50;;;12.90;99.90;;;;;;5054453;28;20044;-85
2021/10/07 00:05:28;;;;;;;28.50;17.73;;;12.90;99.90;;;;;;5054259;28;20029;-86
2021/10/07 00:07:54;;;;;;;28.40;17.80;;;12.80;99.90;;;;;;5056551;28;20040;-86
2021/10/07 00:10:20;;;;;;;27.23;17.50;;;12.90;99.90;;;;;;5053883;28;20478;-86
2021/10/07 00:12:46;;;;;;;28.88;17.45;;;12.80;99.90;;;;;;5054374;28;20027;-86
2021/10/07 00:15:11;;;;;;;34.97;20.00;;;12.90;99.90;;;;;;5053928;28;20031;-85
2021/10/07 00:17:37;;;;;;;31.15;17.48;;;12.90;99.90;;;;;;5055179;28;20025;-85
2021/10/07 00:20:06;;;;;;;28.00;16.92;;;12.80;99.90;;;;;;5053989;28;20033;-86
2021/10/07 00:22:31;;;;;;;30.60;18.63;;;12.80;99.90;;;;;;5054287;28;20051;-85
2021/10/07 00:24:57;;;;;;;27.63;17.42;;;12.90;99.90;;;;;;5054513;28;20470;-85
2021/10/07 00:27:23;;;;;;;29.95;18.27;;;12.80;99.90;;;;;;5057603;28;20025;-86
2021/10/07 00:29:51;;;;;;;27.00;18.17;;;12.80;99.90;;;;;;5055372;28;20021;-85
2021/10/07 00:32:21;;;;;;;28.45;18.02;;;12.80;99.90;;;;;;5055797;28;20056;-85
2021/10/07 00:39:46;;;;;;;31.90;17.98;;;12.80;99.90;;;;;;5057083;28;20056;-85
2021/10/07 00:42:12;;;;;;;31.55;19.35;;;12.90;99.90;;;;;;5055282;28;20025;-85
2021/10/07 00:44:41;;;;;;;36.08;19.33;;;12.90;99.90;;;;;;5055785;28;20477;-85
2021/10/07 00:47:07;;;;;;;31.13;19.15;;;12.90;99.90;;;;;;5057968;28;20493;-85
2021/10/07 00:49:38;;;;;;;31.65;19.42;;;12.90;99.90;;;;;;5056996;28;20083;-87
2021/10/07 00:52:08;;;;;;;35.15;19.80;;;12.90;99.90;;;;;;5055923;28;20079;-85
2021/10/07 00:54:34;;;;;;;32.75;20.25;;;12.90;99.90;;;;;;5056139;28;20024;-85
2021/10/07 00:57:03;;;;;;;32.70;19.80;;;12.90;99.90;;;;;;5057411;28;20024;-85
2021/10/07 00:59:29;;;;;;;35.80;19.23;;;12.90;99.90;;;;;;5056754;28;20066;-86
2021/10/07 01:01:55;;;;;;;28.25;17.75;;;12.90;99.90;;;;;;5057802;28;20037;-85
2021/10/07 01:04:21;;;;;;;30.10;18.48;;;12.90;99.90;;;;;;5057948;28;20099;-85
2021/10/07 01:06:47;;;;;;;31.13;19.55;;;12.90;99.90;;;;;;5056398;28;20025;-85
2021/10/07 01:09:14;;;;;;;35.67;18.20;;;12.90;99.90;;;;;;5055969;28;20056;-85
2021/10/07 01:11:40;;;;;;;30.02;18.35;;;12.90;99.90;;;;;;5057407;28;20037;-85
2021/10/07 01:14:06;;;;;;;30.58;17.13;;;12.90;99.90;;;;;;5055212;28;20505;-85
2021/10/07 01:16:31;;;;;;;26.20;16.67;;;12.90;99.90;;;;;;5054932;28;20024;-87
2021/10/07 01:18:57;;;;;;;27.63;17.10;;;12.90;99.90;;;;;;5054388;28;20120;-85
2021/10/07 01:21:22;;;;;;;36.38;19.02;;;12.90;99.90;;;;;;5075513;22;20045;-85
2021/10/07 01:23:49;;;;;;;34.75;19.77;;;12.90;99.90;;;;;;5051612;28;20469;-86
2021/10/07 01:26:19;;;;;;;30.90;19.48;;;12.90;99.90;;;;;;5052943;28;20074;-85
2021/10/07 01:28:48;;;;;;;35.20;20.92;;;12.90;99.90;;;;;;5052886;28;20025;-85
2021/10/07 01:31:13;;;;;;;39.33;22.15;;;12.90;99.90;;;;;;5051218;28;20055;-85
2021/10/07 01:33:39;;;;;;;36.33;21.92;;;12.90;99.90;;;;;;5051498;28;20489;-85
2021/10/07 01:36:06;;;;;;;33.70;22.10;;;12.90;99.90;;;;;;5052832;28;20048;-85
2021/10/07 01:38:32;;;;;;;33.17;19.85;;;12.90;99.90;;;;;;5053260;28;20021;-85
2021/10/07 01:40:58;;;;;;;37.15;23.25;;;12.90;99.90;;;;;;5051752;28;20021;-85
2021/10/07 01:43:24;;;;;;;35.22;21.20;;;12.90;99.90;;;;;;5052435;28;20031;-85
2021/10/07 01:45:50;;;;;;;44.22;25.13;;;12.90;99.90;;;;;;5052055;28;20024;-85
2021/10/07 01:48:16;;;;;;;42.08;24.05;;;12.90;99.90;;;;;;5053322;28;20021;-85
2021/10/07 01:50:43;;;;;;;46.97;25.63;;;12.80;99.90;;;;;;5051435;28;20027;-85
2021/10/07 01:53:09;;;;;;;46.25;26.02;;;12.80;99.90;;;;;;5052861;28;20021;-86
2021/10/07 01:55:35;;;;;;;47.42;25.23;;;12.80;99.90;;;;;;5051829;28;20120;-85
2021/10/07 01:58:00;;;;;;;42.03;23.95;;;12.80;99.90;;;;;;5052182;28;20043;-86
2021/10/07 02:00:26;;;;;;;43.85;25.35;;;12.80;99.90;;;;;;5053371;28;20112;-85
2021/10/07 02:02:52;;;;;;;38.88;23.48;;;12.70;99.90;;;;;;5054998;28;20087;-85
2021/10/07 02:05:18;;;;;;;45.15;24.98;;;12.70;99.90;;;;;;5053951;28;20029;-86
2021/10/07 02:07:44;;;;;;;44.40;24.85;;;12.70;99.90;;;;;;5052003;28;20051;-85
2021/10/07 02:10:17;;;;;;;44.30;24.63;;;12.70;99.90;;;;;;5051054;28;20060;-85
2021/10/07 02:12:48;;;;;;;35.38;21.85;;;12.70;99.90;;;;;;5051318;28;20112;-85
2021/10/07 02:15:15;;;;;;;37.35;22.92;;;12.70;99.90;;;;;;5050710;28;20543;-85
2021/10/07 02:17:41;;;;;;;39.80;23.30;;;12.70;99.90;;;;;;5050557;28;20035;-85
2021/10/07 02:20:09;;;;;;;41.53;24.15;;;12.70;99.90;;;;;;5050107;28;20607;-85
2021/10/07 02:22:36;;;;;;;45.30;24.85;;;12.70;99.90;;;;;;5049769;28;20064;-85
2021/10/07 02:25:02;;;;;;;39.95;21.77;;;12.60;99.90;;;;;;5050253;28;20029;-85
2021/10/07 02:27:28;;;;;;;40.28;23.08;;;12.60;99.90;;;;;;5050897;28;20025;-85
2021/10/07 02:29:54;;;;;;;40.63;23.58;;;12.60;99.90;;;;;;5051370;28;20569;-85
2021/10/07 02:32:20;;;;;;;40.13;22.77;;;12.60;99.90;;;;;;5050551;28;20060;-86
2021/10/07 02:34:46;;;;;;;36.53;22.48;;;12.60;99.90;;;;;;5052007;28;20055;-86
2021/10/07 02:37:12;;;;;;;47.40;24.60;;;12.60;99.90;;;;;;5050728;28;20021;-86
2021/10/07 02:39:38;;;;;;;43.03;23.75;;;12.50;99.90;;;;;;5051311;28;20029;-85
2021/10/07 02:42:04;;;;;;;41.95;23.40;;;12.50;99.90;;;;;;5051754;28;20060;-86
2021/10/07 02:44:30;;;;;;;38.03;21.42;;;12.40;99.90;;;;;;5050574;28;20390;-86
2021/10/07 02:46:56;;;;;;;41.03;23.15;;;12.40;99.90;;;;;;5050673;28;20029;-85
2021/10/07 02:49:22;;;;;;;34.65;21.40;;;12.40;99.90;;;;;;5049960;28;20033;-85
2021/10/07 02:51:48;;;;;;;42.97;22.83;;;12.40;99.90;;;;;;5050206;28;20037;-87
2021/10/07 02:54:14;;;;;;;40.15;23.67;;;12.40;99.90;;;;;;5051577;28;20485;-87
2021/10/07 02:56:39;;;;;;;42.20;23.05;;;12.40;99.90;;;;;;5050477;28;20029;-85
2021/10/07 02:59:05;;;;;;;42.40;23.35;;;12.30;99.90;;;;;;5050015;28;20048;-85
2021/10/07 03:01:30;;;;;;;35.40;20.58;;;12.30;99.90;;;;;;5051668;28;20079;-85
2021/10/07 03:03:56;;;;;;;36.25;20.88;;;12.30;99.90;;;;;;5051603;28;20470;-85
2021/10/07 03:06:22;;;;;;;33.53;20.20;;;12.30;99.90;;;;;;5050250;28;20036;-85
2021/10/07 03:08:47;;;;;;;35.83;19.40;;;12.30;99.90;;;;;;5050019;28;20485;-86
2021/10/07 03:11:14;;;;;;;40.38;21.67;;;12.30;99.90;;;;;;5049918;28;20099;-85
2021/10/07 03:13:40;;;;;;;32.15;19.42;;;12.30;99.90;;;;;;5050356;28;20477;-85
2021/10/07 03:16:05;;;;;;;35.75;20.75;;;12.30;99.90;;;;;;5050295;28;20082;-85
2021/10/07 03:18:31;;;;;;;38.38;21.23;;;12.30;99.90;;;;;;5051470;28;20055;-85
2021/10/07 03:20:56;;;;;;;37.10;21.88;;;12.20;99.90;;;;;;5049330;28;20037;-85
2021/10/07 03:23:22;;;;;;;35.30;19.17;;;12.20;99.90;;;;;;5050153;28;20035;-85
2021/10/07 03:25:48;;;;;;;32.95;18.85;;;12.20;99.90;;;;;;5050214;28;20036;-85
2021/10/07 03:28:13;;;;;;;43.03;21.90;;;12.20;99.90;;;;;;5052590;28;20025;-86
2021/10/07 03:30:39;;;;;;;38.13;20.70;;;12.20;99.90;;;;;;5053335;28;20048;-85
2021/10/07 03:33:06;;;;;;;34.95;21.13;;;12.10;99.90;;;;;;5055076;28;20054;-86
2021/10/07 03:35:33;;;;;;;37.45;20.48;;;12.10;99.90;;;;;;5053739;28;20174;-85
2021/10/07 03:37:59;;;;;;;38.33;21.02;;;12.10;99.90;;;;;;5053271;28;20060;-85
2021/10/07 03:40:25;;;;;;;33.60;20.70;;;12.10;99.90;;;;;;5053099;28;20477;-86
2021/10/07 03:42:50;;;;;;;37.10;20.38;;;12.00;99.90;;;;;;5054733;28;20036;-85
2021/10/07 03:45:16;;;;;;;32.15;19.27;;;12.00;99.90;;;;;;5053568;28;20517;-85
2021/10/07 03:47:41;;;;;;;37.05;19.95;;;12.00;99.90;;;;;;5053570;28;20040;-85
2021/10/07 03:50:08;;;;;;;32.72;19.20;;;12.00;99.90;;;;;;5052826;28;20397;-85
2021/10/07 03:52:33;;;;;;;37.47;19.75;;;11.90;99.90;;;;;;5053285;28;20075;-85
2021/10/07 03:54:59;;;;;;;35.53;20.20;;;11.90;99.90;;;;;;5054627;28;20029;-86
2021/10/07 03:57:26;;;;;;;34.17;20.25;;;11.90;99.90;;;;;;5054671;28;20025;-85
2021/10/07 03:59:52;;;;;;;32.47;18.65;;;11.90;99.90;;;;;;5052747;28;20116;-85
2021/10/07 04:02:18;;;;;;;32.83;18.60;;;11.90;99.90;;;;;;5053238;28;20464;-85
2021/10/07 04:04:44;;;;;;;31.20;19.83;;;11.90;99.90;;;;;;5054415;28;20086;-86
2021/10/07 04:07:10;;;;;;;31.02;18.50;;;11.90;99.90;;;;;;5054352;28;20028;-85
2021/10/07 04:09:35;;;;;;;33.00;19.75;;;11.90;99.90;;;;;;5052532;28;20119;-85
2021/10/07 04:12:01;;;;;;;33.45;19.63;;;11.90;99.90;;;;;;5052976;28;20036;-85
2021/10/07 04:14:27;;;;;;;26.73;17.52;;;11.90;99.90;;;;;;5053118;28;20056;-85
2021/10/07 04:16:52;;;;;;;34.67;19.60;;;12.00;99.90;;;;;;5052880;28;20390;-86
2021/10/07 04:19:22;;;;;;;35.30;20.25;;;11.90;99.90;;;;;;5052295;28;20036;-85
2021/10/07 04:21:48;;;;;;;35.75;20.45;;;11.90;99.90;;;;;;5052682;28;20386;-86
2021/10/07 04:24:14;;;;;;;34.30;19.30;;;11.90;99.90;;;;;;5052728;28;20082;-86
2021/10/07 04:26:39;;;;;;;35.88;20.42;;;11.90;99.90;;;;;;5052770;28;20025;-85
2021/10/07 04:29:05;;;;;;;32.45;19.63;;;12.00;99.90;;;;;;5052072;28;20033;-85
2021/10/07 04:31:31;;;;;;;34.85;20.45;;;12.00;99.90;;;;;;5052544;28;20036;-86
2021/10/07 04:33:57;;;;;;;39.38;19.65;;;12.10;99.90;;;;;;5052710;28;20025;-85
2021/10/07 04:36:22;;;;;;;31.63;18.70;;;12.00;99.90;;;;;;5052587;28;20025;-85
2021/10/07 04:38:48;;;;;;;29.73;18.17;;;12.00;99.90;;;;;;5051719;28;20055;-86
2021/10/07 04:41:14;;;;;;;36.67;20.02;;;12.00;99.90;;;;;;5052087;28;20544;-86
2021/10/07 04:43:40;;;;;;;34.63;20.15;;;12.10;99.90;;;;;;5053861;28;20541;-86
2021/10/07 04:46:06;;;;;;;34.50;18.95;;;12.10;99.90;;;;;;5052332;28;20036;-86
2021/10/07 04:48:33;;;;;;;31.17;18.98;;;12.10;99.90;;;;;;5052481;28;20029;-86
2021/10/07 04:50:58;;;;;;;35.30;19.85;;;12.10;99.90;;;;;;5052766;28;20115;-86
2021/10/07 04:53:24;;;;;;;38.75;20.25;;;12.10;99.90;;;;;;5052331;28;20120;-85
2021/10/07 04:55:54;;;;;;;31.55;19.08;;;12.10;99.90;;;;;;5052309;28;20028;-85
2021/10/07 04:58:22;;;;;;;38.72;21.92;;;12.10;99.90;;;;;;5052342;28;20032;-85
2021/10/07 05:00:47;;;;;;;36.85;21.42;;;12.20;99.90;;;;;;5051423;28;20036;-85
2021/10/07 05:03:13;;;;;;;52.83;25.65;;;12.20;99.90;;;;;;5052309;28;20098;-86
2021/10/07 05:05:39;;;;;;;43.25;23.90;;;12.20;99.90;;;;;;5053359;28;20341;-86
2021/10/07 05:08:07;;;;;;;58.83;27.40;;;12.20;99.90;;;;;;5052034;28;20032;-85
2021/10/07 05:10:33;;;;;;;57.63;29.10;;;12.20;99.90;;;;;;5051468;28;20100;-86
2021/10/07 05:12:58;;;;;;;72.97;33.28;;;12.20;99.90;;;;;;5052276;28;20497;-85
2021/10/07 05:15:25;;;;;;;64.72;30.88;;;12.20;99.90;;;;;;5052169;28;20036;-85
2021/10/07 05:17:51;;;;;;;66.85;32.00;;;12.20;99.90;;;;;;5051831;28;20025;-85
2021/10/07 05:20:17;;;;;;;51.17;28.50;;;12.20;99.90;;;;;;5052252;28;20032;-86
2021/10/07 05:22:43;;;;;;;56.92;29.45;;;12.20;99.90;;;;;;5051759;28;20021;-85
2021/10/07 05:25:09;;;;;;;61.67;29.67;;;12.20;99.90;;;;;;5053022;28;20328;-85
2021/10/07 05:27:35;;;;;;;62.20;31.02;;;12.20;99.90;;;;;;5051541;28;20029;-85
2021/10/07 05:30:01;;;;;;;61.97;29.70;;;12.20;99.90;;;;;;5050810;28;20025;-85
2021/10/07 05:32:27;;;;;;;57.03;28.45;;;12.20;99.90;;;;;;5051052;28;20025;-85
2021/10/07 05:34:53;;;;;;;69.82;32.83;;;12.20;99.90;;;;;;5051400;28;20457;-85
2021/10/07 05:37:19;;;;;;;63.55;30.38;;;12.20;99.90;;;;;;5052904;28;20029;-85
2021/10/07 05:39:44;;;;;;;59.97;29.80;;;12.20;99.90;;;;;;5052151;28;20095;-85
2021/10/07 05:42:10;;;;;;;69.00;32.47;;;12.20;99.90;;;;;;5051352;28;20112;-85
2021/10/07 05:44:35;;;;;;;69.18;32.00;;;12.20;99.90;;;;;;5052923;28;20051;-87
2021/10/07 05:47:01;;;;;;;67.78;31.58;;;12.20;99.90;;;;;;5051208;28;20497;-85
2021/10/07 05:49:27;;;;;;;64.32;31.20;;;12.10;99.90;;;;;;5051964;28;20516;-85
2021/10/07 05:51:54;;;;;;;69.25;29.60;;;12.10;99.90;;;;;;5052127;28;20025;-85
2021/10/07 05:54:20;;;;;;;72.45;31.05;;;12.10;99.90;;;;;;5051051;28;20024;-86
2021/10/07 05:56:46;;;;;;;60.35;27.10;;;12.10;99.90;;;;;;5051404;28;20108;-86
2021/10/07 05:59:12;;;;;;;69.13;29.52;;;12.20;99.90;;;;;;5050297;28;20163;-85
2021/10/07 06:01:37;;;;;;;64.70;28.50;;;12.10;99.90;;;;;;5051075;28;20123;-85
2021/10/07 06:04:03;;;;;;;57.95;26.85;;;12.10;99.90;;;;;;5051049;28;20028;-85
2021/10/07 06:06:29;;;;;;;68.55;29.23;;;12.10;99.90;;;;;;5052486;28;20031;-85
2021/10/07 06:08:55;;;;;;;72.53;30.73;;;12.10;99.90;;;;;;5050537;28;20389;-85
2021/10/07 06:11:20;;;;;;;72.20;29.48;;;12.10;99.90;;;;;;5052066;28;20474;-85
2021/10/07 06:13:46;;;;;;;77.60;31.48;;;12.10;99.90;;;;;;5050854;28;20387;-86
2021/10/07 06:16:12;;;;;;;73.40;29.70;;;12.10;99.90;;;;;;5050983;28;20040;-85
2021/10/07 06:18:38;;;;;;;72.78;30.55;;;12.10;99.90;;;;;;5050802;28;20052;-85
2021/10/07 06:21:04;;;;;;;75.00;30.50;;;12.10;99.90;;;;;;5050092;28;20039;-85
2021/10/07 06:23:29;;;;;;;70.25;30.40;;;12.10;99.90;;;;;;5050738;28;20025;-85
2021/10/07 06:25:55;;;;;;;74.60;31.52;;;12.10;99.90;;;;;;5052060;28;20017;-85
2021/10/07 06:28:21;;;;;;;73.53;30.55;;;12.10;99.90;;;;;;5050529;28;20023;-86
2021/10/07 06:30:47;;;;;;;79.45;32.72;;;12.10;99.90;;;;;;5050115;28;20028;-85
2021/10/07 06:33:13;;;;;;;80.82;32.03;;;12.10;99.90;;;;;;5050562;28;20036;-85
2021/10/07 06:35:38;;;;;;;78.45;33.47;;;12.10;99.90;;;;;;5050846;28;20331;-85
2021/10/07 06:38:05;;;;;;;80.75;33.13;;;12.10;99.90;;;;;;5050636;28;20040;-85
2021/10/07 06:40:30;;;;;;;87.05;31.63;;;12.10;99.90;;;;;;5051634;28;20052;-85
2021/10/07 06:42:56;;;;;;;82.50;32.50;;;12.10;99.90;;;;;;5050570;28;20087;-85
2021/10/07 06:45:24;;;;;;;71.07;29.98;;;12.10;99.90;;;;;;5051999;28;20497;-85
2021/10/07 06:47:49;;;;;;;80.95;31.92;;;12.10;99.90;;;;;;5052227;28;20086;-85
2021/10/07 06:50:15;;;;;;;87.97;33.53;;;12.10;99.90;;;;;;5051369;28;20100;-86
2021/10/07 06:52:41;;;;;;;73.85;32.28;;;12.10;99.90;;;;;;5050604;28;20064;-85
2021/10/07 06:55:12;;;;;;;88.15;33.78;;;12.10;99.90;;;;;;5052099;28;20025;-86
2021/10/07 06:57:39;;;;;;;80.82;32.33;;;12.10;99.90;;;;;;5050826;28;20040;-85
2021/10/07 07:00:07;;;;;;;83.82;33.95;;;12.10;99.90;;;;;;5050176;28;20052;-85
2021/10/07 07:02:35;;;;;;;79.80;32.75;;;12.20;99.90;;;;;;5052215;28;20106;-85
2021/10/07 07:05:03;;;;;;;92.50;35.42;;;12.10;99.90;;;;;;5055948;28;20028;-85
2021/10/07 07:07:30;;;;;;;86.97;34.30;;;12.20;99.90;;;;;;5054861;28;20029;-85
2021/10/07 07:09:55;;;;;;;85.38;34.45;;;12.20;99.90;;;;;;5053985;28;20021;-85
2021/10/07 07:12:21;;;;;;;80.95;32.33;;;12.30;99.90;;;;;;5055700;28;20056;-85
2021/10/07 07:14:46;;;;;;;92.75;35.75;;;12.30;99.90;;;;;;5055482;28;20021;-85
2021/10/07 07:17:12;;;;;;;83.38;34.17;;;12.30;99.90;;;;;;5056846;28;20044;-85
2021/10/07 07:19:38;;;;;;;94.88;35.85;;;12.30;99.90;;;;;;5054526;28;20025;-85
2021/10/07 07:22:04;;;;;;;93.78;35.95;;;12.30;99.90;;;;;;5081713;22;20041;-86
2021/10/07 07:24:30;;;;;;;99.40;38.08;;;12.30;99.90;;;;;;5054394;28;20041;-87
2021/10/07 07:26:56;;;;;;;92.43;35.53;;;12.20;99.90;;;;;;5055991;28;20017;-86
2021/10/07 07:29:22;;;;;;;91.10;35.53;;;12.30;99.90;;;;;;5054650;28;20488;-86
2021/10/07 07:31:47;;;;;;;84.60;33.05;;;12.20;99.90;;;;;;5055986;28;20029;-87
2021/10/07 07:34:13;;;;;;;98.10;35.83;;;12.30;99.90;;;;;;5060447;28;20083;-86
2021/10/07 07:36:39;;;;;;;93.30;35.97;;;12.30;99.90;;;;;;5060644;28;20052;-86
2021/10/07 07:39:05;;;;;;;102.45;37.38;;;12.30;99.90;;;;;;5053374;28;20465;-86
2021/10/07 07:41:30;;;;;;;103.38;37.88;;;12.30;99.90;;;;;;5053697;28;20029;-85
2021/10/07 07:43:56;;;;;;;101.03;35.72;;;12.30;99.90;;;;;;5053806;28;20029;-86
2021/10/07 07:46:22;;;;;;;91.25;35.50;;;12.30;99.90;;;;;;5055013;28;20028;-87
2021/10/07 07:48:48;;;;;;;105.30;36.17;;;12.30;99.90;;;;;;5054775;28;20055;-86
2021/10/07 07:51:14;;;;;;;101.47;35.50;;;12.30;99.90;;;;;;5053218;28;20068;-87
2021/10/07 07:53:40;;;;;;;104.03;39.17;;;12.40;99.90;;;;;;5054761;28;20055;-86
2021/10/07 07:56:06;;;;;;;112.25;38.75;;;12.30;99.90;;;;;;5055568;28;20447;-86
2021/10/07 07:58:31;;;;;;;100.10;36.30;;;12.30;99.90;;;;;;5053558;28;20477;-86
2021/10/07 08:00:57;;;;;;;97.47;35.70;;;12.40;99.90;;;;;;5052570;28;20064;-86
2021/10/07 08:03:25;;;;;;;98.93;35.22;;;12.40;99.90;;;;;;5053319;28;20239;-87
2021/10/07 08:05:51;;;;;;;92.60;34.60;;;12.40;99.90;;;;;;5053257;28;20032;-86
2021/10/07 08:08:16;;;;;;;87.07;32.70;;;12.50;99.90;;;;;;5054511;28;20498;-86
2021/10/07 08:10:42;;;;;;;86.32;31.33;;;12.50;99.90;;;;;;5052654;28;20074;-87
2021/10/07 08:13:08;;;;;;;84.97;31.75;;;12.50;99.90;;;;;;5052727;28;20496;-86
2021/10/07 08:15:33;;;;;;;83.25;30.63;;;12.50;99.90;;;;;;5052585;28;20027;-87
2021/10/07 08:17:59;;;;;;;82.65;32.10;;;12.60;99.90;;;;;;5054276;28;20024;-87
2021/10/07 08:20:25;;;;;;;74.68;28.42;;;12.60;99.90;;;;;;5052261;28;20033;-86
2021/10/07 08:22:51;;;;;;;80.78;30.58;;;12.60;99.90;;;;;;5052854;28;20124;-86
2021/10/07 08:25:18;;;;;;;89.70;32.28;;;12.60;99.90;;;;;;5052965;28;20025;-86
2021/10/07 08:27:45;;;;;;;89.10;32.65;;;12.60;99.90;;;;;;5053104;28;20031;-87
2021/10/07 08:30:13;;;;;;;83.75;31.77;;;12.60;99.90;;;;;;5052229;28;20374;-87
2021/10/07 08:32:39;;;;;;;70.63;29.38;;;12.60;99.90;;;;;;5052768;28;20025;-87
2021/10/07 08:35:05;;;;;;;80.45;31.60;;;12.60;99.90;;;;;;5053996;28;20040;-87
2021/10/07 08:37:32;;;;;;;72.95;29.67;;;12.60;99.90;;;;;;5052712;28;20024;-86
2021/10/07 08:39:58;;;;;;;79.70;30.23;;;12.70;99.90;;;;;;5052142;28;20444;-86
2021/10/07 08:42:24;;;;;;;67.10;27.15;;;12.70;99.90;;;;;;5052397;28;20028;-86
2021/10/07 08:44:50;;;;;;;64.28;27.23;;;12.70;99.90;;;;;;5053830;28;20055;-87
2021/10/07 08:47:16;;;;;;;56.05;22.83;;;12.70;99.90;;;;;;5053684;28;20025;-86
2021/10/07 08:49:42;;;;;;;50.13;22.27;;;12.80;99.90;;;;;;5053225;28;20108;-86
2021/10/07 08:52:08;;;;;;;46.38;21.13;;;12.80;99.90;;;;;;5052323;28;20593;-87
2021/10/07 08:54:34;;;;;;;48.95;21.15;;;12.90;99.90;;;;;;5052365;28;20021;-87
2021/10/07 08:57:04;;;;;;;46.88;20.17;;;12.90;99.90;;;;;;5052236;28;20025;-86
2021/10/07 08:59:30;;;;;;;39.63;18.83;;;13.00;99.90;;;;;;5051857;28;20025;-87
2021/10/07 09:02:01;;;;;;;40.38;18.77;;;13.00;99.90;;;;;;5052210;28;20123;-87
2021/10/07 09:04:28;;;;;;;41.22;18.70;;;13.00;99.90;;;;;;5053486;28;20021;-87
2021/10/07 09:06:58;;;;;;;42.35;18.88;;;13.00;99.90;;;;;;5052268;28;20029;-86
2021/10/07 09:09:26;;;;;;;48.78;21.30;;;13.00;99.90;;;;;;5051532;28;20036;-87
2021/10/07 09:11:56;;;;;;;40.55;19.20;;;13.10;99.90;;;;;;5051965;28;20027;-86
2021/10/07 09:14:28;;;;;;;34.83;16.85;;;13.10;99.90;;;;;;5053306;28;20427;-86
2021/10/07 09:16:56;;;;;;;27.25;14.13;;;13.10;99.90;;;;;;5052056;28;20485;-87
2021/10/07 09:19:30;;;;;;;25.25;12.80;;;13.20;99.90;;;;;;5052614;28;20028;-86
2021/10/07 09:21:59;;;;;;;25.75;14.80;;;13.20;99.90;;;;;;5051732;28;20072;-87
2021/10/07 09:24:30;;;;;;;27.80;14.35;;;13.20;99.90;;;;;;5051825;28;20028;-86
2021/10/07 09:27:01;;;;;;;27.08;15.05;;;13.20;99.90;;;;;;5051755;28;20123;-86
2021/10/07 09:29:32;;;;;;;27.20;15.60;;;13.20;99.90;;;;;;5051030;28;20489;-87
2021/10/07 09:31:57;;;;;;;25.88;14.57;;;13.10;99.90;;;;;;5051587;28;20393;-87
2021/10/07 09:34:35;;;;;;;24.23;14.20;;;13.10;99.90;;;;;;5051702;28;20124;-87
2021/10/07 09:37:01;;;;;;;24.02;14.30;;;13.00;99.90;;;;;;5051803;28;20086;-86
2021/10/07 09:39:32;;;;;;;24.83;13.75;;;13.10;99.90;;;;;;5051037;28;20052;-86
2021/10/07 09:42:05;;;;;;;24.70;14.75;;;13.10;99.90;;;;;;5052620;28;20488;-87
2021/10/07 09:44:31;;;;;;;26.20;14.85;;;13.10;99.90;;;;;;5051328;28;20029;-87
2021/10/07 09:46:56;;;;;;;26.38;14.40;;;13.00;99.90;;;;;;5051573;28;20088;-87
2021/10/07 09:49:34;;;;;;;24.73;14.10;;;13.00;99.90;;;;;;5050813;28;20071;-87
2021/10/07 09:52:01;;;;;;;25.95;14.52;;;13.00;99.90;;;;;;5051162;28;20047;-86
2021/10/07 09:54:33;;;;;;;27.05;15.15;;;13.00;99.90;;;;;;5052497;28;20419;-86
2021/10/07 09:57:01;;;;;;;26.00;14.55;;;13.10;99.90;;;;;;5051287;28;20025;-86
2021/10/07 09:59:28;;;;;;;20.27;11.65;;;13.10;99.90;;;;;;5050690;28;20025;-86
2021/10/07 10:01:55;;;;;;;20.27;12.48;;;13.10;99.90;;;;;;5051021;28;20032;-86
2021/10/07 10:04:26;;;;;;;18.13;10.95;;;13.10;99.90;;;;;;5052379;28;20111;-87
2021/10/07 10:06:52;;;;;;;14.48;10.10;;;13.10;99.90;;;;;;5051056;28;20029;-86
2021/10/07 10:09:25;;;;;;;16.92;9.80;;;13.10;99.90;;;;;;5050635;28;20036;-87
2021/10/07 10:11:52;;;;;;;16.33;9.15;;;13.10;99.90;;;;;;5050971;28;20531;-87
2021/10/07 10:14:22;;;;;;;14.25;9.20;;;13.10;99.90;;;;;;5051108;28;20264;-86
2021/10/07 10:16:48;;;;;;;19.08;10.10;;;13.10;99.90;;;;;;5051022;28;20473;-86
2021/10/07 10:19:14;;;;;;;15.02;9.38;;;13.20;99.90;;;;;;5051610;28;20529;-87
2021/10/07 10:21:44;;;;;;;19.45;11.43;;;13.10;99.90;;;;;;5051825;28;20065;-87
2021/10/07 10:24:11;;;;;;;19.23;10.82;;;13.20;99.90;;;;;;5050966;28;20035;-86
2021/10/07 10:26:38;;;;;;;20.85;12.57;;;13.20;99.90;;;;;;5050980;28;20029;-87
2021/10/07 10:29:21;;;;;;;21.10;14.02;;;13.20;99.90;;;;;;5050149;28;20033;-87
2021/10/07 10:31:50;;;;;;;20.55;12.98;;;13.30;99.90;;;;;;5051436;28;20496;-86
2021/10/07 10:34:18;;;;;;;19.63;11.95;;;13.40;99.90;;;;;;5052112;28;20382;-86
2021/10/07 10:36:46;;;;;;;18.20;12.05;;;13.40;99.90;;;;;;5051500;28;20056;-86
2021/10/07 10:39:18;;;;;;;22.42;12.00;;;13.50;99.90;;;;;;5050104;28;20078;-86
2021/10/07 10:41:57;;;;;;;17.00;11.25;;;13.50;99.90;;;;;;5050630;28;20033;-86
2021/10/07 10:44:26;;;;;;;18.90;11.68;;;13.60;99.90;;;;;;5050597;28;20057;-86
2021/10/07 10:47:07;;;;;;;17.83;10.80;;;13.50;99.90;;;;;;5050838;28;20029;-87
2021/10/07 10:50:19;;;;;;;20.50;11.77;;;13.50;99.90;;;;;;5050164;28;20490;-87
2021/10/07 10:52:47;;;;;;;21.75;12.93;;;13.50;99.90;;;;;;5047204;28;20033;-86
2021/10/07 10:55:18;;;;;;;24.20;13.55;;;13.50;99.90;;;;;;5050446;28;20052;-87
2021/10/07 10:57:49;;;;;;;25.00;14.23;;;13.60;99.90;;;;;;5050555;28;20031;-87
2021/10/07 11:00:25;;;;;;;27.50;15.38;;;13.60;99.90;;;;;;5050255;28;20040;-86
2021/10/07 11:02:54;;;;;;;28.30;15.23;;;13.70;99.90;;;;;;5050672;28;20033;-87
2021/10/07 11:05:29;;;;;;;33.97;18.97;;;13.70;99.90;;;;;;5051642;28;20025;-86
2021/10/07 11:08:19;;;;;;;29.00;16.65;;;13.70;99.90;;;;;;5050379;28;20268;-87
2021/10/07 11:10:52;;;;;;;29.58;17.33;;;13.80;99.90;;;;;;5050015;28;20374;-86
2021/10/07 11:13:24;;;;;;;26.73;15.63;;;13.70;99.90;;;;;;5051559;28;20032;-87
2021/10/07 11:15:53;;;;;;;29.92;16.10;;;13.70;99.90;;;;;;5052034;28;20032;-86
2021/10/07 11:18:20;;;;;;;30.52;15.82;;;13.80;99.90;;;;;;5050462;28;20408;-87
2021/10/07 11:20:54;;;;;;;24.90;14.20;;;13.80;99.90;;;;;;5049518;28;20512;-86
2021/10/07 11:23:20;;;;;;;25.23;13.95;;;13.80;99.90;;;;;;5050249;28;20061;-87
2021/10/07 11:25:50;;;;;;;26.17;15.13;;;13.80;99.90;;;;;;5051950;28;20056;-87
2021/10/07 11:28:24;;;;;;;23.77;12.90;;;13.80;99.90;;;;;;5050310;28;20029;-86
2021/10/07 11:30:49;;;;;;;24.00;13.75;;;13.80;99.90;;;;;;5049704;28;20021;-87
2021/10/07 11:33:15;;;;;;;23.23;13.20;;;13.80;99.90;;;;;;5050335;28;20048;-87
2021/10/07 11:35:41;;;;;;;24.05;14.85;;;13.80;99.90;;;;;;5050374;28;20087;-86
2021/10/07 11:38:11;;;;;;;18.45;11.00;;;13.80;99.90;;;;;;5052019;28;20029;-87
2021/10/07 11:40:44;;;;;;;14.00;8.88;;;13.90;99.90;;;;;;5050278;28;20483;-87
2021/10/07 11:43:16;;;;;;;12.93;7.75;;;13.90;99.90;;;;;;5050717;28;20076;-87
2021/10/07 11:45:45;;;;;;;14.35;8.43;;;13.90;99.90;;;;;;5053584;28;20025;-87
2021/10/07 11:48:12;;;;;;;14.57;8.40;;;14.00;99.90;;;;;;5063925;28;20044;-86
2021/10/07 11:50:42;;;;;;;15.70;8.63;;;14.00;99.90;;;;;;5066915;28;20032;-86
2021/10/07 11:53:10;;;;;;;16.48;8.88;;;14.00;99.90;;;;;;5055032;28;20116;-86
2021/10/07 11:55:40;;;;;;;15.85;9.43;;;14.00;99.90;;;;;;5053858;28;20734;-87
2021/10/07 11:58:06;;;;;;;14.75;8.77;;;14.00;99.90;;;;;;5053552;28;20470;-86
2021/10/07 12:00:52;;;;;;;13.32;8.23;;;14.10;99.90;;;;;;5054186;28;20025;-86
2021/10/07 12:03:23;;;;;;;12.98;7.10;;;14.10;99.90;;;;;;5053058;28;20060;-86
2021/10/07 12:05:56;;;;;;;10.02;6.05;;;14.20;99.90;;;;;;5054882;28;20029;-86
2021/10/07 12:08:23;;;;;;;9.25;5.75;;;14.30;99.90;;;;;;5053305;28;20032;-86
2021/10/07 12:11:01;;;;;;;9.73;6.03;;;14.30;99.90;;;;;;5052592;28;20039;-87
2021/10/07 12:13:34;;;;;;;7.32;4.85;;;14.30;99.90;;;;;;5053278;28;20072;-86
2021/10/07 12:16:01;;;;;;;8.90;5.68;;;14.30;99.90;;;;;;5053240;28;20064;-87
2021/10/07 12:18:28;;;;;;;7.38;4.97;;;14.20;99.90;;;;;;5053114;28;20040;-86
2021/10/07 12:20:58;;;;;;;8.85;4.93;;;14.30;99.90;;;;;;5053476;28;20485;-87
2021/10/07 12:23:23;;;;;;;9.07;5.72;;;14.20;99.90;;;;;;5054245;28;20462;-87
2021/10/07 12:26:03;;;;;;;7.47;4.72;;;14.30;99.90;;;;;;5053006;28;20087;-86
2021/10/07 12:28:29;;;;;;;8.77;5.35;;;14.20;99.90;;;;;;5052910;28;20025;-86
2021/10/07 12:30:55;;;;;;;9.32;5.00;;;14.20;99.90;;;;;;5052207;28;20025;-87
2021/10/07 12:33:20;;;;;;;7.32;5.07;;;14.30;99.90;;;;;;5053997;28;20031;-87